Time;durP1;ratioP1;P1;durP2;ratioP2;P2;SDS_P1;SDS_P2;PMS_P1;PMS_P2;Temp;Humidity;BMP_temperature;BMP_pressure;BME280_temperature;BME280_humidity;BME280_pressure;Samples;Min_cycle;Max_cycle;Signal;HPM_P1;HPM_P2
2022/04/18 00:00:49;;;;;;;6.93;3.33;;;6.90;87.40;;;;;;5087670;28;20395;-66
2022/04/18 00:03:16;;;;;;;7.97;2.90;;;6.80;88.00;;;;;;5087813;28;20078;-66
2022/04/18 00:05:44;;;;;;;5.30;2.53;;;6.80;88.30;;;;;;5090604;28;20484;-66
2022/04/18 00:08:11;;;;;;;4.90;2.53;;;6.80;89.00;;;;;;5088635;28;20052;-66
2022/04/18 00:10:38;;;;;;;4.40;2.50;;;6.80;89.40;;;;;;5092494;28;20058;-66
2022/04/18 00:13:06;;;;;;;5.68;2.70;;;6.80;89.80;;;;;;5091782;28;20413;-65
2022/04/18 00:15:33;;;;;;;6.47;2.70;;;6.80;90.30;;;;;;5091479;28;20115;-65
2022/04/18 00:18:00;;;;;;;7.00;2.90;;;6.70;90.60;;;;;;5090254;28;20044;-66
2022/04/18 00:20:29;;;;;;;6.75;2.42;;;6.70;91.40;;;;;;5094366;28;20045;-66
2022/04/18 00:22:56;;;;;;;5.18;2.85;;;6.70;91.20;;;;;;5105895;28;20047;-66
2022/04/18 00:25:23;;;;;;;5.22;2.33;;;6.70;91.50;;;;;;5096690;28;20135;-66
2022/04/18 00:27:51;;;;;;;6.15;2.83;;;6.70;91.60;;;;;;5085203;28;20122;-65
2022/04/18 00:30:18;;;;;;;4.35;2.15;;;6.70;92.10;;;;;;5096722;28;20040;-66
2022/04/18 00:32:46;;;;;;;6.78;2.85;;;6.60;92.30;;;;;;5096003;28;20055;-66
2022/04/18 00:35:13;;;;;;;6.25;2.80;;;6.60;92.60;;;;;;5099457;28;20533;-65
2022/04/18 00:37:42;;;;;;;5.97;2.85;;;6.50;92.70;;;;;;5105881;28;20562;-65
2022/04/18 00:40:11;;;;;;;7.32;2.47;;;6.50;93.20;;;;;;5074376;28;20040;-66
2022/04/18 00:42:44;;;;;;;8.18;3.17;;;6.50;93.50;;;;;;5104617;28;20369;-65
2022/04/18 00:45:14;;;;;;;7.43;2.60;;;6.50;93.50;;;;;;5088173;28;20052;-66
2022/04/18 00:47:41;;;;;;;5.82;2.80;;;6.50;93.60;;;;;;5095218;28;20054;-66
2022/04/18 00:50:09;;;;;;;8.50;2.83;;;6.40;93.90;;;;;;5092310;28;20036;-66
2022/04/18 00:52:38;;;;;;;5.70;2.80;;;6.30;94.70;;;;;;5106240;28;20035;-65
2022/04/18 00:55:06;;;;;;;6.53;3.35;;;6.30;95.30;;;;;;5099093;28;20142;-65
2022/04/18 00:57:35;;;;;;;6.03;2.70;;;6.30;95.60;;;;;;5081436;28;20460;-65
2022/04/18 01:00:04;;;;;;;9.05;3.53;;;6.20;95.70;;;;;;5088155;28;20048;-65
2022/04/18 01:02:32;;;;;;;7.57;2.78;;;6.20;96.50;;;;;;5089626;28;20358;-65
2022/04/18 01:04:59;;;;;;;8.02;3.60;;;6.20;96.80;;;;;;5099752;28;20050;-65
2022/04/18 01:07:27;;;;;;;7.05;2.97;;;6.10;97.60;;;;;;5090388;28;20044;-65
2022/04/18 01:09:55;;;;;;;4.75;2.60;;;6.10;97.70;;;;;;5075935;28;20059;-65
2022/04/18 01:12:22;;;;;;;7.07;3.00;;;6.10;98.10;;;;;;5102094;28;20236;-65
2022/04/18 01:15:14;;;;;;;7.80;2.80;;;6.00;98.80;;;;;;5106387;28;20055;-65
2022/04/18 01:18:00;;;;;;;5.30;2.90;;;6.00;99.20;;;;;;5094937;28;20047;-66
2022/04/18 01:20:54;;;;;;;5.88;2.67;;;6.00;99.70;;;;;;5074506;28;20449;-65
2022/04/18 01:23:37;;;;;;;5.00;2.70;;;6.00;99.90;;;;;;5091113;28;20133;-65
2022/04/18 01:28:59;;;;;;;7.00;2.95;;;6.00;99.90;;;;;;5090166;28;20040;-65
2022/04/18 01:31:31;;;;;;;7.03;2.70;;;5.90;99.90;;;;;;5090655;28;20147;-65
2022/04/18 01:33:59;;;;;;;5.47;2.90;;;5.90;99.90;;;;;;5089647;28;20059;-65
2022/04/18 01:36:27;;;;;;;7.68;2.95;;;5.90;99.90;;;;;;5102516;28;20040;-65
2022/04/18 01:38:57;;;;;;;7.22;3.13;;;5.90;99.90;;;;;;5096114;28;20481;-66
2022/04/18 01:41:24;;;;;;;6.30;2.90;;;5.90;99.90;;;;;;5102500;28;20067;-65
2022/04/18 01:43:53;;;;;;;5.15;2.70;;;5.80;99.90;;;;;;5090572;28;20043;-65
2022/04/18 01:46:21;;;;;;;8.07;3.25;;;5.80;99.90;;;;;;5099035;28;20084;-64
2022/04/18 01:48:51;;;;;;;9.38;4.68;;;5.70;99.90;;;;;;5102272;28;20036;-66
2022/04/18 01:51:19;;;;;;;10.30;4.10;;;5.70;99.90;;;;;;5105975;28;20047;-65
2022/04/18 01:53:48;;;;;;;6.32;2.83;;;5.70;99.90;;;;;;5101718;28;20521;-65
2022/04/18 01:56:16;;;;;;;6.43;3.05;;;5.70;99.90;;;;;;5104618;28;20418;-65
2022/04/18 01:58:43;;;;;;;6.32;2.88;;;5.70;99.90;;;;;;5093882;28;20050;-65
2022/04/18 02:01:11;;;;;;;5.43;2.63;;;5.70;99.90;;;;;;5074640;28;20044;-67
2022/04/18 02:03:42;;;;;;;5.30;2.65;;;5.70;99.90;;;;;;5090708;28;20069;-65
2022/04/18 02:06:11;;;;;;;6.15;3.03;;;5.60;99.90;;;;;;5103671;28;20043;-65
2022/04/18 02:08:40;;;;;;;7.35;3.05;;;5.60;99.90;;;;;;5089495;28;20036;-65
2022/04/18 02:11:08;;;;;;;7.28;3.30;;;5.60;99.90;;;;;;5083626;28;20056;-65
2022/04/18 02:13:38;;;;;;;6.15;3.17;;;5.50;99.90;;;;;;5090513;28;20039;-66
2022/04/18 02:16:08;;;;;;;7.78;3.60;;;5.50;99.90;;;;;;5095901;28;20490;-66
2022/04/18 02:18:39;;;;;;;5.43;2.97;;;5.50;99.90;;;;;;5102129;28;20387;-66
2022/04/18 02:21:11;;;;;;;6.28;3.00;;;5.40;99.90;;;;;;5095244;28;20098;-66
2022/04/18 02:23:39;;;;;;;6.85;3.28;;;5.30;99.90;;;;;;5100924;28;20067;-66
2022/04/18 02:26:08;;;;;;;7.05;3.60;;;5.20;99.90;;;;;;5088450;28;20093;-66
2022/04/18 02:28:36;;;;;;;7.75;2.92;;;5.10;99.90;;;;;;5090643;28;20040;-66
2022/04/18 02:31:09;;;;;;;7.38;3.08;;;5.00;99.90;;;;;;5089789;28;20479;-66
2022/04/18 02:33:36;;;;;;;10.10;3.50;;;5.00;99.90;;;;;;5091859;28;20065;-66
2022/04/18 02:36:04;;;;;;;6.07;3.03;;;4.90;99.90;;;;;;5089706;28;20046;-66
2022/04/18 02:38:32;;;;;;;6.78;3.00;;;4.90;99.90;;;;;;5091564;28;20050;-66
2022/04/18 02:40:59;;;;;;;5.25;2.70;;;4.80;99.90;;;;;;5089938;28;20048;-66
2022/04/18 02:43:28;;;;;;;6.57;3.00;;;4.80;99.90;;;;;;5091033;28;20075;-66
2022/04/18 02:46:01;;;;;;;8.43;3.17;;;4.70;99.90;;;;;;5083465;28;20051;-65
2022/04/18 02:48:34;;;;;;;7.03;3.00;;;4.70;99.90;;;;;;5086020;28;20060;-65
2022/04/18 02:51:05;;;;;;;7.57;3.05;;;4.70;99.90;;;;;;5074615;28;20540;-65
2022/04/18 02:53:33;;;;;;;7.10;3.72;;;4.60;99.90;;;;;;5092438;28;20488;-66
2022/04/18 02:56:04;;;;;;;8.20;3.20;;;4.60;99.90;;;;;;5089488;28;20036;-65
2022/04/18 02:58:35;;;;;;;6.88;3.00;;;4.60;99.90;;;;;;5091920;28;20500;-65
2022/04/18 03:01:02;;;;;;;5.40;3.05;;;4.50;99.90;;;;;;5086840;28;20042;-66
2022/04/18 03:03:30;;;;;;;5.75;3.10;;;4.50;99.90;;;;;;5095000;28;20653;-66
2022/04/18 03:05:59;;;;;;;6.65;3.00;;;4.50;99.90;;;;;;5088592;28;20102;-66
2022/04/18 03:08:26;;;;;;;9.13;3.60;;;4.50;99.90;;;;;;5097882;28;20040;-66
2022/04/18 03:11:03;;;;;;;6.70;2.88;;;4.50;99.90;;;;;;5098825;28;20487;-66
2022/04/18 03:13:34;;;;;;;7.00;2.95;;;4.50;99.90;;;;;;5093937;28;20084;-66
2022/04/18 03:16:06;;;;;;;6.22;2.90;;;4.50;99.90;;;;;;5095530;28;20147;-66
2022/04/18 03:18:35;;;;;;;8.02;3.20;;;4.50;99.90;;;;;;5097585;28;20524;-66
2022/04/18 03:21:03;;;;;;;6.75;3.00;;;4.50;99.90;;;;;;5102372;28;20493;-65
2022/04/18 03:23:32;;;;;;;7.40;3.40;;;4.50;99.90;;;;;;5075112;28;20114;-65
2022/04/18 03:26:19;;;;;;;8.30;3.20;;;4.50;99.90;;;;;;5077754;28;20499;-65
2022/04/18 03:29:00;;;;;;;7.25;3.30;;;4.40;99.90;;;;;;5089602;28;20105;-66
2022/04/18 03:31:27;;;;;;;6.22;3.03;;;4.40;99.90;;;;;;5083575;28;20542;-66
2022/04/18 03:33:55;;;;;;;7.78;3.15;;;4.40;99.90;;;;;;5092273;28;20036;-65
2022/04/18 03:41:55;;;;;;;6.40;2.67;;;4.30;99.90;;;;;;5090690;28;20079;-66
2022/04/18 03:44:23;;;;;;;7.00;2.90;;;4.30;99.90;;;;;;5092129;28;20514;-66
2022/04/18 03:46:50;;;;;;;6.07;3.15;;;4.30;99.90;;;;;;5094287;28;20455;-66
2022/04/18 03:49:19;;;;;;;5.88;2.80;;;4.40;99.90;;;;;;5097429;28;20052;-66
2022/04/18 03:51:49;;;;;;;6.10;2.88;;;4.40;99.90;;;;;;5094127;28;20060;-65
2022/04/18 03:54:16;;;;;;;5.78;2.83;;;4.40;99.90;;;;;;5095242;28;20512;-66
2022/04/18 03:56:43;;;;;;;4.93;2.60;;;4.30;99.90;;;;;;5096310;28;20052;-65
2022/04/18 03:59:27;;;;;;;9.20;3.40;;;4.30;99.90;;;;;;5096598;28;20596;-64
2022/04/18 04:01:59;;;;;;;6.75;2.90;;;4.30;99.90;;;;;;5094272;28;20048;-65
2022/04/18 04:04:29;;;;;;;6.03;2.80;;;4.40;99.90;;;;;;5090512;28;20040;-65
2022/04/18 04:07:00;;;;;;;7.47;3.00;;;4.30;99.90;;;;;;5094721;28;20085;-66
2022/04/18 04:09:28;;;;;;;6.25;2.90;;;4.30;99.90;;;;;;5095202;28;20067;-66
2022/04/18 04:11:55;;;;;;;6.75;3.10;;;4.30;99.90;;;;;;5095730;28;20098;-64
2022/04/18 04:14:23;;;;;;;6.60;3.08;;;4.30;99.90;;;;;;5093428;28;20094;-65
2022/04/18 04:16:50;;;;;;;5.47;3.20;;;4.40;99.90;;;;;;5102905;28;20039;-65
2022/04/18 04:19:17;;;;;;;8.55;2.88;;;4.30;99.90;;;;;;5096392;28;20044;-65
2022/04/18 04:21:45;;;;;;;8.30;3.55;;;4.40;99.90;;;;;;5087235;28;20071;-65
2022/04/18 04:24:13;;;;;;;5.18;2.85;;;4.40;99.90;;;;;;5101666;28;20047;-65
2022/04/18 04:26:44;;;;;;;5.93;2.97;;;4.40;99.90;;;;;;5094653;28;20036;-65
2022/04/18 04:29:18;;;;;;;8.35;3.47;;;4.40;99.90;;;;;;5103753;28;20355;-64
2022/04/18 04:32:11;;;;;;;6.25;2.90;;;4.50;99.90;;;;;;5081921;28;20052;-66
2022/04/18 04:34:41;;;;;;;6.78;2.78;;;4.60;99.90;;;;;;5092512;28;20455;-65
2022/04/18 04:37:27;;;;;;;7.15;2.95;;;4.50;99.90;;;;;;5089987;28;20087;-65
2022/04/18 04:40:08;;;;;;;6.25;2.80;;;4.50;99.90;;;;;;5104704;28;20398;-65
2022/04/18 04:42:36;;;;;;;5.22;2.85;;;4.50;99.90;;;;;;5074942;28;20052;-65
2022/04/18 04:45:04;;;;;;;6.60;2.80;;;4.50;99.90;;;;;;5094113;28;20055;-65
2022/04/18 04:47:50;;;;;;;6.85;2.85;;;4.50;99.90;;;;;;5095125;28;20572;-66
2022/04/18 04:50:18;;;;;;;6.25;3.00;;;4.50;99.90;;;;;;5096568;28;20040;-66
2022/04/18 04:52:52;;;;;;;5.13;2.90;;;4.50;99.90;;;;;;5108596;28;20047;-65
2022/04/18 04:55:23;;;;;;;5.93;3.17;;;4.60;99.90;;;;;;5098759;28;20448;-65
2022/04/18 04:57:51;;;;;;;5.25;3.20;;;4.60;99.90;;;;;;5100279;28;20163;-65
2022/04/18 05:00:42;;;;;;;5.72;3.13;;;4.60;99.90;;;;;;5067667;28;20059;-65
2022/04/18 05:03:20;;;;;;;7.95;2.92;;;4.70;99.90;;;;;;5092461;28;20060;-65
2022/04/18 05:05:48;;;;;;;7.65;3.38;;;4.70;99.90;;;;;;5086964;28;20051;-65
2022/04/18 05:08:34;;;;;;;6.82;3.45;;;4.80;99.90;;;;;;5092779;28;20036;-65
2022/04/18 05:11:03;;;;;;;10.65;3.33;;;4.80;99.90;;;;;;5078403;28;20063;-65
2022/04/18 05:13:48;;;;;;;6.30;3.55;;;4.80;99.90;;;;;;5091855;28;20040;-66
2022/04/18 05:16:19;;;;;;;7.55;3.70;;;4.90;99.90;;;;;;5090584;28;20036;-65
2022/04/18 05:18:50;;;;;;;6.75;3.55;;;4.90;99.90;;;;;;5093091;28;20384;-65
2022/04/18 05:21:17;;;;;;;7.38;3.45;;;5.00;99.90;;;;;;5093562;28;20044;-66
2022/04/18 05:23:48;;;;;;;6.55;3.47;;;5.00;99.90;;;;;;5098807;28;20387;-66
2022/04/18 05:26:15;;;;;;;5.38;3.33;;;5.10;99.90;;;;;;5095350;28;20050;-64
2022/04/18 05:28:45;;;;;;;9.05;3.42;;;5.10;99.90;;;;;;5086987;28;20037;-65
2022/04/18 05:31:17;;;;;;;6.68;3.40;;;5.10;99.90;;;;;;5087324;28;20169;-66
2022/04/18 05:33:45;;;;;;;7.07;3.70;;;5.20;99.90;;;;;;5082966;28;20040;-66
2022/04/18 05:36:25;;;;;;;5.78;3.40;;;5.20;99.90;;;;;;5067085;28;20506;-66
2022/04/18 05:38:53;;;;;;;6.85;3.88;;;5.20;99.90;;;;;;5091120;28;20036;-66
2022/04/18 05:41:28;;;;;;;7.28;3.15;;;5.30;99.90;;;;;;5087284;28;20045;-66
2022/04/18 05:43:55;;;;;;;6.50;3.28;;;5.30;99.90;;;;;;5089106;28;20048;-66
2022/04/18 05:46:29;;;;;;;7.63;3.40;;;5.40;99.90;;;;;;5091678;28;20561;-65
2022/04/18 05:48:58;;;;;;;5.68;3.03;;;5.40;99.90;;;;;;5091476;28;20154;-65
2022/04/18 05:51:25;;;;;;;7.53;3.17;;;5.50;99.90;;;;;;5085284;28;20039;-66
2022/04/18 05:53:53;;;;;;;7.03;3.30;;;5.60;99.90;;;;;;5086043;28;20074;-65
2022/04/18 05:56:32;;;;;;;6.80;3.17;;;5.70;99.90;;;;;;5079859;28;20036;-66
2022/04/18 05:59:05;;;;;;;5.03;3.03;;;5.70;99.90;;;;;;5087171;28;20517;-66
2022/04/18 06:02:05;;;;;;;7.32;2.97;;;5.80;99.90;;;;;;5046347;28;20056;-66
2022/04/18 06:04:34;;;;;;;7.53;3.20;;;5.80;99.90;;;;;;5048749;28;20064;-65
2022/04/18 06:07:17;;;;;;;9.43;2.92;;;5.90;99.90;;;;;;5045857;28;20415;-65
2022/04/18 06:09:51;;;;;;;6.65;3.88;;;6.00;99.90;;;;;;5028429;28;20523;-66
2022/04/18 06:12:22;;;;;;;9.30;3.80;;;6.10;99.90;;;;;;5045459;28;20107;-65
2022/04/18 06:14:52;;;;;;;;;;;6.20;99.90;;;;;;5048709;28;20477;-65
2022/04/18 06:17:19;;;;;;;9.05;4.35;;;6.30;99.90;;;;;;5049795;28;19924;-65
2022/04/18 06:19:49;;;;;;;7.78;3.53;;;6.40;99.90;;;;;;5044217;28;20040;-66
2022/04/18 06:22:17;;;;;;;5.32;2.92;;;6.50;99.90;;;;;;5028720;28;20471;-65
2022/04/18 06:24:45;;;;;;;6.38;2.97;;;6.70;99.90;;;;;;5020762;28;20083;-66
2022/04/18 06:27:22;;;;;;;5.32;3.10;;;6.70;99.90;;;;;;5045816;28;20045;-65
2022/04/18 06:29:50;;;;;;;6.13;2.90;;;6.90;99.90;;;;;;5030661;28;20554;-66
2022/04/18 06:32:21;;;;;;;5.93;2.70;;;7.00;99.90;;;;;;5029089;28;20506;-66
2022/04/18 06:34:48;;;;;;;6.10;2.90;;;7.10;99.90;;;;;;5031713;28;20075;-66
2022/04/18 06:37:19;;;;;;;6.40;3.10;;;7.20;99.90;;;;;;5047287;28;20186;-66
2022/04/18 06:40:19;;;;;;;7.40;3.15;;;7.30;99.90;;;;;;5004419;28;20619;-66
2022/04/18 06:42:46;;;;;;;5.63;3.08;;;7.50;99.90;;;;;;5008848;28;20665;-65
2022/04/18 06:45:21;;;;;;;6.13;3.22;;;7.60;99.90;;;;;;4991646;28;20062;-66
2022/04/18 06:47:49;;;;;;;10.38;3.47;;;7.70;99.90;;;;;;4996401;28;20041;-66
2022/04/18 06:50:35;;;;;;;4.78;2.80;;;7.80;99.90;;;;;;4992070;28;20045;-66
2022/04/18 06:53:14;;;;;;;6.55;2.53;;;7.90;99.90;;;;;;5007652;28;20067;-66
2022/04/18 06:58:58;;;;;;;5.22;2.70;;;8.20;99.90;;;;;;5013220;28;20056;-65
2022/04/18 07:01:27;;;;;;;7.28;3.10;;;8.40;99.90;;;;;;4990024;28;20108;-64
2022/04/18 07:03:55;;;;;;;7.95;2.75;;;8.50;99.90;;;;;;4990936;28;20072;-65
2022/04/18 07:06:23;;;;;;;5.25;2.83;;;8.60;99.90;;;;;;5007937;28;20054;-67
2022/04/18 07:08:50;;;;;;;6.85;3.15;;;8.80;99.90;;;;;;4989431;28;20054;-66
2022/04/18 07:11:45;;;;;;;6.15;2.58;;;8.90;99.90;;;;;;5008913;28;20424;-66
2022/04/18 07:14:15;;;;;;;6.40;2.78;;;9.00;99.90;;;;;;5010380;28;20050;-65
2022/04/18 07:16:45;;;;;;;6.20;2.92;;;9.10;99.90;;;;;;5074875;28;20113;-66
2022/04/18 07:19:18;;;;;;;5.78;2.58;;;9.30;99.90;;;;;;5085215;28;20115;-66
2022/04/18 07:21:47;;;;;;;6.40;2.63;;;9.40;99.90;;;;;;5097481;28;20062;-66
2022/04/18 07:24:16;;;;;;;5.35;3.05;;;9.50;99.90;;;;;;5090087;28;20040;-65
2022/04/18 07:26:45;;;;;;;5.95;2.80;;;9.50;99.90;;;;;;5089569;28;20040;-66
2022/04/18 07:29:12;;;;;;;5.60;2.72;;;9.70;99.90;;;;;;5092164;28;20063;-66
2022/04/18 07:31:42;;;;;;;6.78;4.05;;;9.80;99.90;;;;;;5077157;28;20046;-66
2022/04/18 07:34:09;;;;;;;8.10;3.72;;;9.90;99.90;;;;;;5095411;28;20062;-67
2022/04/18 07:36:37;;;;;;;12.68;7.03;;;10.10;99.90;;;;;;5092806;28;20036;-67
2022/04/18 07:39:04;;;;;;;7.90;4.13;;;10.20;99.90;;;;;;5094676;28;20044;-67
2022/04/18 07:41:36;;;;;;;10.43;4.20;;;10.20;99.90;;;;;;5091048;28;20046;-66
2022/04/18 07:44:05;;;;;;;9.88;5.22;;;10.40;99.90;;;;;;5098355;28;20784;-66
2022/04/18 07:46:33;;;;;;;7.10;3.45;;;10.60;99.90;;;;;;5095954;28;20044;-66
2022/04/18 07:49:06;;;;;;;5.65;2.70;;;10.70;99.90;;;;;;5093658;28;20054;-66
2022/04/18 07:51:43;;;;;;;7.88;2.95;;;10.80;99.90;;;;;;5095134;28;20086;-66
2022/04/18 07:54:24;;;;;;;4.55;2.67;;;10.90;99.90;;;;;;5091439;28;20032;-66
2022/04/18 07:56:52;;;;;;;5.32;2.70;;;11.00;99.90;;;;;;5077907;28;20093;-66
2022/04/18 07:59:27;;;;;;;4.20;2.25;;;11.20;99.90;;;;;;5096439;28;20523;-66
2022/04/18 08:01:54;;;;;;;4.35;2.20;;;11.30;99.90;;;;;;5080024;28;20045;-65
2022/04/18 08:04:42;;;;;;;5.72;2.55;;;11.50;99.90;;;;;;5086500;28;20147;-64
2022/04/18 08:07:13;;;;;;;4.70;2.78;;;11.60;99.90;;;;;;5075125;28;20150;-65
2022/04/18 08:09:40;;;;;;;4.70;2.25;;;11.70;99.90;;;;;;5092506;28;20040;-65
2022/04/18 08:12:11;;;;;;;5.13;2.10;;;11.90;99.90;;;;;;5093553;28;20138;-65
2022/04/18 08:15:17;;;;;;;5.00;2.85;;;12.00;99.90;;;;;;5074505;28;20134;-65
2022/04/18 08:17:45;;;;;;;6.43;2.80;;;12.10;99.90;;;;;;5094840;28;20574;-65
2022/04/18 08:20:16;;;;;;;5.85;3.30;;;12.30;99.90;;;;;;5107952;28;20039;-66
2022/04/18 08:22:43;;;;;;;5.93;2.65;;;12.40;99.90;;;;;;5103779;28;20184;-65
2022/04/18 08:25:33;;;;;;;4.35;1.75;;;12.40;99.90;;;;;;5040789;28;20063;-66
2022/04/18 08:28:24;;;;;;;4.90;2.30;;;12.50;99.90;;;;;;5047215;28;20037;-65
2022/04/18 08:30:51;;;;;;;4.60;2.25;;;12.60;99.90;;;;;;5030689;28;20061;-66
2022/04/18 08:33:30;;;;;;;6.78;2.10;;;12.70;99.90;;;;;;5026640;28;20515;-65
2022/04/18 08:35:58;;;;;;;4.55;2.22;;;12.80;99.90;;;;;;5031189;28;20099;-66
2022/04/18 08:38:26;;;;;;;8.63;2.33;;;12.90;99.90;;;;;;5033131;28;20049;-64
2022/04/18 08:41:16;;;;;;;5.60;2.58;;;13.00;99.90;;;;;;5048021;28;20040;-65
2022/04/18 08:43:44;;;;;;;9.18;3.10;;;13.00;99.90;;;;;;5032766;28;20060;-65
2022/04/18 08:46:12;;;;;;;5.10;2.13;;;13.20;99.90;;;;;;5031858;28;20146;-65
2022/04/18 08:54:14;;;;;;;5.93;2.00;;;13.20;98.90;;;;;;5033269;28;20087;-64
2022/04/18 08:56:43;;;;;;;7.68;4.40;;;13.40;98.50;;;;;;5019040;28;20115;-65
2022/04/18 08:59:11;;;;;;;5.65;2.53;;;13.50;98.00;;;;;;5028838;28;20427;-65
2022/04/18 09:01:52;;;;;;;7.88;2.58;;;13.60;97.90;;;;;;5046356;28;20051;-64
2022/04/18 09:04:31;;;;;;;3.90;1.70;;;13.90;97.20;;;;;;5082727;28;20044;-65
2022/04/18 09:07:11;;;;;;;4.97;2.25;;;14.00;96.10;;;;;;5090368;28;20490;-65
2022/04/18 09:09:44;;;;;;;5.00;2.72;;;14.10;95.90;;;;;;5090219;28;20383;-65
2022/04/18 09:12:21;;;;;;;3.92;2.10;;;14.10;95.60;;;;;;5088742;28;20040;-65
2022/04/18 09:15:34;;;;;;;6.25;1.80;;;14.10;95.60;;;;;;5093795;28;20046;-64
2022/04/18 09:18:11;;;;;;;4.90;2.45;;;14.20;95.30;;;;;;5089813;28;20132;-65
2022/04/18 09:20:49;;;;;;;5.40;3.30;;;14.30;95.20;;;;;;5104112;28;20063;-65
2022/04/18 09:23:22;;;;;;;4.55;2.00;;;14.50;94.10;;;;;;5107723;28;20565;-65
2022/04/18 09:25:56;;;;;;;3.97;2.17;;;14.60;93.30;;;;;;5106715;28;20484;-64
2022/04/18 09:28:42;;;;;;;5.00;2.60;;;14.70;92.60;;;;;;5095003;28;20040;-65
2022/04/18 09:31:17;;;;;;;4.05;2.15;;;14.80;92.00;;;;;;5078695;28;20124;-65
2022/04/18 09:33:45;;;;;;;;;;;14.80;92.30;;;;;;5097243;28;20119;-65
2022/04/18 09:36:18;;;;;;;6.18;2.88;;;14.70;92.60;;;;;;5109416;28;20007;-65
2022/04/18 09:38:53;;;;;;;5.28;2.42;;;14.70;92.80;;;;;;5089979;28;20588;-65
2022/04/18 09:41:30;;;;;;;5.20;2.20;;;14.90;92.80;;;;;;5095454;28;20050;-66
2022/04/18 09:44:09;;;;;;;5.10;2.20;;;15.00;92.50;;;;;;5090781;28;20057;-65
2022/04/18 09:46:42;;;;;;;4.60;2.10;;;15.10;92.00;;;;;;5077596;28;20101;-65
2022/04/18 09:49:15;;;;;;;6.10;2.40;;;15.30;92.00;;;;;;5058033;28;20040;-64
2022/04/18 09:51:52;;;;;;;5.18;2.35;;;15.40;91.80;;;;;;5082965;28;20048;-65
2022/04/18 09:54:22;;;;;;;3.85;1.80;;;15.50;91.60;;;;;;5105472;28;20050;-65
2022/04/18 09:56:50;;;;;;;3.80;2.00;;;15.60;91.50;;;;;;5102950;28;20143;-65
2022/04/18 09:59:19;;;;;;;4.63;2.20;;;15.80;91.30;;;;;;5089978;28;20123;-65
2022/04/18 10:01:47;;;;;;;5.10;2.30;;;16.00;90.70;;;;;;5080521;28;20051;-64
2022/04/18 10:04:16;;;;;;;3.55;2.00;;;16.10;90.70;;;;;;5087424;28;20418;-64
2022/04/18 10:06:45;;;;;;;3.92;1.90;;;16.10;90.50;;;;;;5089077;28;20062;-65
2022/04/18 10:09:13;;;;;;;6.15;2.35;;;16.20;89.30;;;;;;5090452;28;20040;-65
2022/04/18 10:11:42;;;;;;;5.43;2.25;;;16.10;89.00;;;;;;5090523;28;20551;-64
2022/04/18 10:14:10;;;;;;;4.38;2.40;;;16.10;90.10;;;;;;5087639;28;20072;-64
2022/04/18 10:16:39;;;;;;;5.43;2.90;;;16.30;89.50;;;;;;5087392;28;20099;-65
2022/04/18 10:19:26;;;;;;;4.68;2.00;;;16.30;88.00;;;;;;5095484;28;20052;-65
2022/04/18 10:22:32;;;;;;;4.97;2.00;;;16.40;87.40;;;;;;5096840;28;20062;-65
2022/04/18 10:25:33;;;;;;;4.95;2.10;;;16.60;86.50;;;;;;5067967;28;20536;-64
2022/04/18 10:28:08;;;;;;;5.50;1.85;;;16.80;84.90;;;;;;5056426;28;20094;-65
2022/04/18 10:30:44;;;;;;;3.38;1.60;;;16.60;84.00;;;;;;5081732;28;20062;-66
2022/04/18 10:33:12;;;;;;;4.43;1.90;;;16.70;85.00;;;;;;5080517;28;20037;-66
2022/04/18 10:35:59;;;;;;;5.30;2.08;;;16.80;84.80;;;;;;5085235;28;20530;-66
2022/04/18 10:38:30;;;;;;;4.40;2.25;;;16.90;83.10;;;;;;5085536;28;20108;-66
2022/04/18 10:41:15;;;;;;;4.75;2.47;;;17.20;82.20;;;;;;5082724;28;20471;-65
2022/04/18 10:43:55;;;;;;;5.95;2.35;;;17.40;82.10;;;;;;5088227;28;20139;-66
2022/04/18 10:46:23;;;;;;;2.88;1.40;;;17.80;81.90;;;;;;5083699;28;20541;-65
2022/04/18 10:48:57;;;;;;;4.13;2.30;;;17.90;79.70;;;;;;5101701;28;20395;-65
2022/04/18 10:51:33;;;;;;;3.38;1.70;;;18.00;78.50;;;;;;5108845;28;20040;-65
2022/04/18 10:54:11;;;;;;;3.75;1.50;;;18.40;77.20;;;;;;5090153;28;20044;-66
2022/04/18 10:56:59;;;;;;;3.70;1.90;;;18.70;76.40;;;;;;5088151;28;20123;-66
2022/04/18 10:59:31;;;;;;;4.00;1.83;;;18.60;76.80;;;;;;5089460;28;20189;-65
2022/04/18 11:02:01;;;;;;;4.55;1.90;;;18.50;77.10;;;;;;5084492;28;20051;-66
2022/04/18 11:04:33;;;;;;;2.95;1.52;;;18.40;77.00;;;;;;5087680;28;20491;-65
2022/04/18 11:07:08;;;;;;;4.10;1.88;;;18.20;76.60;;;;;;5098309;28;20607;-65
2022/04/18 11:09:48;;;;;;;3.53;1.50;;;18.40;75.80;;;;;;5093782;28;20536;-65
2022/04/18 11:12:21;;;;;;;4.88;2.00;;;18.80;75.70;;;;;;5078264;28;20068;-65
2022/04/18 11:15:02;;;;;;;3.50;1.45;;;18.90;74.70;;;;;;5099757;28;20587;-65
2022/04/18 11:17:32;;;;;;;4.80;1.40;;;19.50;73.20;;;;;;5102948;28;20413;-64
2022/04/18 11:20:29;;;;;;;4.32;2.05;;;19.80;71.90;;;;;;5101315;28;20570;-65
2022/04/18 11:23:18;;;;;;;4.30;1.67;;;19.80;70.40;;;;;;5099299;28;20479;-65
2022/04/18 11:25:55;;;;;;;4.90;1.60;;;20.00;70.00;;;;;;5095471;28;20032;-65
2022/04/18 11:28:23;;;;;;;3.20;1.65;;;20.20;70.60;;;;;;5090302;28;20486;-65
2022/04/18 11:30:51;;;;;;;3.15;1.67;;;20.20;68.20;;;;;;5084081;28;20464;-65
2022/04/18 11:33:19;;;;;;;6.05;2.40;;;19.60;69.60;;;;;;5094208;28;20588;-66
2022/04/18 11:35:47;;;;;;;4.57;2.25;;;20.00;69.80;;;;;;5099169;28;20053;-65
2022/04/18 11:38:15;;;;;;;4.28;1.98;;;20.30;70.10;;;;;;5091164;28;20392;-66
2022/04/18 11:40:44;;;;;;;3.03;1.40;;;20.90;67.80;;;;;;5103856;28;20122;-65
2022/04/18 11:43:13;;;;;;;6.97;1.73;;;20.70;66.90;;;;;;5099908;28;20048;-66
2022/04/18 11:45:40;;;;;;;6.18;1.40;;;21.00;66.30;;;;;;5092365;28;20071;-66
2022/04/18 11:48:11;;;;;;;3.03;1.58;;;21.50;65.20;;;;;;5102718;28;20040;-65
2022/04/18 11:50:41;;;;;;;3.10;1.63;;;21.80;64.50;;;;;;5100246;28;20577;-66
2022/04/18 11:53:11;;;;;;;2.83;1.35;;;21.70;63.90;;;;;;5104563;28;20039;-66
2022/04/18 11:55:51;;;;;;;2.83;1.30;;;21.60;64.40;;;;;;5098871;28;20048;-66
2022/04/18 11:58:20;;;;;;;3.47;1.67;;;22.00;64.30;;;;;;5085675;28;20077;-66
2022/04/18 12:09:10;;;;;;;4.10;1.70;;;23.10;61.60;;;;;;5091311;28;20464;-66
2022/04/18 12:11:38;;;;;;;3.15;1.48;;;22.90;61.40;;;;;;5104705;28;20066;-65
2022/04/18 12:14:05;;;;;;;2.72;1.50;;;23.50;60.50;;;;;;5098159;28;20125;-65
2022/04/18 12:16:34;;;;;;;2.28;1.35;;;23.50;60.20;;;;;;5100556;28;20547;-65
2022/04/18 12:19:01;;;;;;;3.88;1.60;;;23.90;59.30;;;;;;5094493;28;20093;-64
2022/04/18 12:21:29;;;;;;;2.65;1.52;;;24.60;58.00;;;;;;5091011;28;20059;-66
2022/04/18 12:23:59;;;;;;;4.03;1.52;;;24.50;58.10;;;;;;5098529;28;20047;-66
2022/04/18 12:26:29;;;;;;;2.65;1.52;;;24.40;57.40;;;;;;5089287;28;20072;-66
2022/04/18 12:29:06;;;;;;;3.28;1.48;;;23.80;57.90;;;;;;5078367;28;20520;-65
2022/04/18 12:31:33;;;;;;;4.82;1.45;;;23.80;57.50;;;;;;5089388;28;20421;-64
2022/04/18 12:34:01;;;;;;;5.20;1.50;;;24.20;57.90;;;;;;5091315;28;20500;-65
2022/04/18 12:36:33;;;;;;;4.40;2.72;;;24.90;57.10;;;;;;5090095;28;20127;-65
2022/04/18 12:39:03;;;;;;;3.38;1.70;;;25.40;55.90;;;;;;5091521;28;20043;-66
2022/04/18 12:41:33;;;;;;;4.35;2.33;;;25.30;55.30;;;;;;5091661;28;20054;-66
2022/04/18 12:44:01;;;;;;;2.33;1.33;;;25.10;56.20;;;;;;5092727;28;20415;-65
2022/04/18 12:46:32;;;;;;;4.95;1.98;;;25.90;55.70;;;;;;5090395;28;20144;-66
2022/04/18 12:49:10;;;;;;;3.33;1.40;;;26.40;54.80;;;;;;5078145;28;20044;-66
2022/04/18 12:51:42;;;;;;;3.30;1.75;;;26.50;54.20;;;;;;5090497;28;20064;-66
2022/04/18 12:54:23;;;;;;;2.45;1.30;;;26.30;53.40;;;;;;5087581;28;20479;-65
2022/04/18 12:56:51;;;;;;;4.10;1.97;;;25.40;53.40;;;;;;5084068;28;20472;-65
2022/04/18 12:59:27;;;;;;;3.20;1.40;;;25.60;54.10;;;;;;5089677;28;20044;-65
2022/04/18 13:02:08;;;;;;;3.35;1.60;;;26.20;53.90;;;;;;5089905;28;20039;-65
2022/04/18 13:04:35;;;;;;;2.93;1.40;;;26.60;52.70;;;;;;5087720;28;20056;-65
2022/04/18 13:07:08;;;;;;;3.05;1.45;;;26.20;52.40;;;;;;5090953;28;20142;-66
2022/04/18 13:09:36;;;;;;;3.33;1.70;;;26.30;52.40;;;;;;5089834;28;20047;-65
2022/04/18 13:12:08;;;;;;;2.88;1.25;;;25.80;52.90;;;;;;5089767;28;20131;-65
2022/04/18 13:14:57;;;;;;;3.13;1.30;;;26.30;52.50;;;;;;5095724;28;20115;-65
2022/04/18 13:17:24;;;;;;;3.30;1.60;;;27.30;51.80;;;;;;5095641;28;20041;-65
2022/04/18 13:19:52;;;;;;;2.88;1.20;;;28.20;51.00;;;;;;5091791;28;20085;-64
2022/04/18 13:22:19;;;;;;;5.68;2.00;;;28.60;50.00;;;;;;5087393;28;20079;-65
2022/04/18 13:24:46;;;;;;;4.57;2.35;;;28.40;50.00;;;;;;5095934;28;20115;-65
2022/04/18 13:27:27;;;;;;;5.78;3.45;;;28.70;49.80;;;;;;5102340;28;20054;-65
2022/04/18 13:29:55;;;;;;;3.42;1.42;;;30.20;48.90;;;;;;5083304;28;20047;-65
2022/04/18 13:32:24;;;;;;;3.42;1.23;;;31.80;47.20;;;;;;5082730;28;20048;-65
2022/04/18 13:34:53;;;;;;;2.38;1.17;;;33.00;45.60;;;;;;5096313;28;20151;-65
2022/04/18 13:37:21;;;;;;;3.35;1.45;;;33.40;45.30;;;;;;5088461;28;20140;-65
2022/04/18 13:39:52;;;;;;;2.10;1.20;;;34.90;43.20;;;;;;5078400;28;20387;-65
2022/04/18 13:42:19;;;;;;;3.78;1.23;;;34.80;42.60;;;;;;5100603;28;20035;-65
2022/04/18 13:44:46;;;;;;;2.28;1.02;;;34.60;42.00;;;;;;5104083;28;20088;-65